Time;durP1;ratioP1;P1;durP2;ratioP2;P2;SDS_P1;SDS_P2;PMS_P1;PMS_P2;Temp;Humidity;BMP_temperature;BMP_pressure;BME280_temperature;BME280_humidity;BME280_pressure;Samples;Min_cycle;Max_cycle;Signal;HPM_P1;HPM_P2
2023/06/23 00:00:37;;;;;;;6.53;3.75;;;20.10;99.90;;;;;;5067828;28;20628;-60
2023/06/23 00:03:04;;;;;;;12.13;4.57;;;20.00;99.90;;;;;;5067486;28;20041;-59
2023/06/23 00:05:31;;;;;;;6.15;3.35;;;20.00;99.90;;;;;;5067499;28;20132;-59
2023/06/23 00:07:59;;;;;;;5.32;3.10;;;20.00;99.90;;;;;;5067612;28;20044;-59
2023/06/23 00:10:25;;;;;;;8.48;3.40;;;20.00;99.90;;;;;;5067586;28;20130;-59
2023/06/23 00:12:52;;;;;;;5.65;3.50;;;20.10;99.90;;;;;;5067623;28;20431;-59
2023/06/23 00:15:19;;;;;;;9.48;4.10;;;20.10;99.90;;;;;;5067824;28;20053;-62
2023/06/23 00:17:47;;;;;;;5.13;3.45;;;20.10;99.90;;;;;;5068047;28;20049;-59
2023/06/23 00:20:14;;;;;;;5.97;3.60;;;20.00;99.90;;;;;;5067877;28;20045;-61
2023/06/23 00:22:41;;;;;;;4.70;3.33;;;19.90;99.90;;;;;;5067805;28;20133;-60
2023/06/23 00:25:12;;;;;;;9.90;4.05;;;19.90;99.90;;;;;;5067790;28;20071;-60
2023/06/23 00:27:39;;;;;;;4.95;3.55;;;19.90;99.90;;;;;;5067967;28;20059;-60
2023/06/23 00:30:07;;;;;;;5.70;3.67;;;19.90;99.90;;;;;;5067881;28;20052;-60
2023/06/23 00:32:34;;;;;;;6.93;3.60;;;19.90;99.90;;;;;;5067970;28;20496;-60
2023/06/23 00:35:01;;;;;;;15.45;3.75;;;19.80;99.90;;;;;;5067701;28;20418;-61
2023/06/23 00:37:29;;;;;;;6.85;3.13;;;19.80;99.90;;;;;;5068411;28;20055;-59
2023/06/23 00:39:56;;;;;;;5.78;3.70;;;19.70;99.90;;;;;;5071449;28;20044;-62
2023/06/23 00:42:23;;;;;;;7.75;4.38;;;19.60;99.90;;;;;;5087106;28;20056;-60
2023/06/23 00:44:50;;;;;;;5.57;3.70;;;19.50;99.90;;;;;;5068823;28;20048;-60
2023/06/23 00:47:17;;;;;;;6.25;3.55;;;19.50;99.90;;;;;;5071723;28;20048;-60
2023/06/23 00:49:45;;;;;;;6.35;3.80;;;19.50;99.90;;;;;;5071209;28;20056;-60
2023/06/23 00:52:11;;;;;;;6.45;3.75;;;19.50;99.90;;;;;;5053910;28;20056;-59
2023/06/23 00:54:38;;;;;;;7.95;3.63;;;19.50;99.90;;;;;;5052942;28;20110;-59
2023/06/23 00:57:05;;;;;;;7.35;3.60;;;19.60;99.90;;;;;;5071253;28;20565;-60
2023/06/23 00:59:32;;;;;;;5.65;3.45;;;19.60;99.90;;;;;;5070895;28;20041;-60
2023/06/23 01:02:01;;;;;;;8.00;3.72;;;19.50;99.90;;;;;;5071064;28;20185;-60
2023/06/23 01:04:29;;;;;;;5.57;3.50;;;19.40;99.90;;;;;;5070654;28;20139;-61
2023/06/23 01:06:59;;;;;;;5.20;3.78;;;19.40;99.90;;;;;;5070198;28;20048;-60
2023/06/23 01:09:35;;;;;;;8.35;4.13;;;19.50;99.90;;;;;;5070645;28;20458;-60
2023/06/23 01:12:15;;;;;;;8.30;4.63;;;19.50;99.90;;;;;;5069581;28;20044;-62
2023/06/23 01:15:13;;;;;;;7.28;4.13;;;19.60;99.90;;;;;;5053712;28;20048;-60
2023/06/23 01:18:05;;;;;;;6.72;4.10;;;19.60;99.90;;;;;;4704394;28;9999959;-60
2023/06/23 01:20:33;;;;;;;4.40;3.35;;;19.60;99.90;;;;;;5048329;28;20114;-60
2023/06/23 01:23:22;;;;;;;6.70;3.80;;;19.70;99.90;;;;;;5052931;28;20083;-62
2023/06/23 01:25:54;;;;;;;9.75;3.97;;;19.70;99.90;;;;;;5052449;28;20040;-61
2023/06/23 01:28:27;;;;;;;6.10;3.90;;;19.70;99.90;;;;;;5053000;28;20064;-59
2023/06/23 01:30:54;;;;;;;4.80;3.70;;;19.70;99.90;;;;;;5070466;28;20411;-61
2023/06/23 01:33:23;;;;;;;5.50;3.70;;;19.70;99.90;;;;;;5052810;28;20487;-60
2023/06/23 01:35:56;;;;;;;11.20;4.15;;;19.60;99.90;;;;;;5036265;28;20060;-60
2023/06/23 01:38:27;;;;;;;9.45;3.80;;;19.50;99.90;;;;;;5042600;28;20044;-61
2023/06/23 01:40:54;;;;;;;6.05;3.97;;;19.50;99.90;;;;;;5052506;28;20491;-60
2023/06/23 01:43:29;;;;;;;6.78;4.40;;;19.60;99.90;;;;;;5052360;28;20051;-60
2023/06/23 01:46:03;;;;;;;6.90;3.80;;;19.70;99.90;;;;;;5052800;28;20053;-62
2023/06/23 01:48:32;;;;;;;7.28;4.35;;;19.70;99.90;;;;;;5052358;28;20052;-59
2023/06/23 01:51:02;;;;;;;5.43;3.70;;;19.70;99.90;;;;;;5051639;28;20044;-60
2023/06/23 01:53:30;;;;;;;6.53;3.90;;;19.70;99.90;;;;;;5049729;28;20139;-61
2023/06/23 01:55:59;;;;;;;6.20;3.95;;;19.70;99.90;;;;;;5035948;28;20044;-60
2023/06/23 01:58:26;;;;;;;9.85;3.90;;;19.70;99.90;;;;;;5052210;28;20048;-60
2023/06/23 02:00:53;;;;;;;6.30;4.05;;;19.60;99.90;;;;;;5036012;28;20041;-60
2023/06/23 02:03:20;;;;;;;5.90;4.00;;;19.60;99.90;;;;;;5069590;28;20495;-58
2023/06/23 02:05:47;;;;;;;10.77;4.43;;;19.60;99.90;;;;;;5052209;28;20049;-61
2023/06/23 02:08:14;;;;;;;8.20;4.13;;;19.60;99.90;;;;;;5051807;28;20044;-60
2023/06/23 02:10:41;;;;;;;7.93;5.00;;;19.50;99.90;;;;;;5075545;28;20051;-60
2023/06/23 02:13:11;;;;;;;6.40;3.70;;;19.50;99.90;;;;;;5075611;28;20048;-60
2023/06/23 02:15:38;;;;;;;6.22;4.40;;;19.50;99.90;;;;;;5051933;28;20123;-59
2023/06/23 02:18:05;;;;;;;6.95;4.30;;;19.40;99.90;;;;;;5051442;28;20047;-58
2023/06/23 02:20:32;;;;;;;5.47;4.50;;;19.30;99.90;;;;;;5031596;28;20052;-59
2023/06/23 02:22:59;;;;;;;6.97;4.50;;;19.30;99.90;;;;;;5048951;28;20056;-59
2023/06/23 02:25:26;;;;;;;6.18;3.80;;;19.20;99.90;;;;;;5031641;28;20064;-58
2023/06/23 02:27:53;;;;;;;8.95;4.05;;;19.20;99.90;;;;;;5057082;28;20048;-59
2023/06/23 02:30:20;;;;;;;6.18;3.80;;;19.10;99.90;;;;;;5051660;28;20044;-59
2023/06/23 02:32:47;;;;;;;7.35;4.28;;;19.00;99.90;;;;;;5051453;28;20044;-59
2023/06/23 02:35:15;;;;;;;7.45;4.30;;;19.00;99.90;;;;;;5035142;28;20127;-59
2023/06/23 02:37:46;;;;;;;7.60;4.00;;;19.10;99.90;;;;;;5051346;28;20051;-59
2023/06/23 02:40:16;;;;;;;7.00;3.78;;;19.10;99.90;;;;;;5035134;28;20048;-59
2023/06/23 02:42:50;;;;;;;6.47;3.95;;;19.00;99.90;;;;;;5051398;28;20055;-59
2023/06/23 02:45:18;;;;;;;;;;;19.10;99.90;;;;;;5066847;28;20376;-59
2023/06/23 02:47:44;;;;;;;7.10;3.67;;;19.00;99.90;;;;;;5069025;28;19920;-59
2023/06/23 02:50:12;;;;;;;8.88;4.03;;;19.00;99.90;;;;;;5034695;28;20048;-58
2023/06/23 02:52:42;;;;;;;8.07;5.13;;;18.90;99.90;;;;;;5068913;28;20112;-58
2023/06/23 02:55:09;;;;;;;7.43;4.00;;;18.90;99.90;;;;;;5050746;28;20513;-59
2023/06/23 02:57:36;;;;;;;9.40;4.63;;;18.70;99.90;;;;;;5050925;28;20052;-58
2023/06/23 03:00:12;;;;;;;6.78;4.05;;;18.70;99.90;;;;;;5034475;28;20094;-59
2023/06/23 03:02:42;;;;;;;10.32;4.55;;;18.70;99.90;;;;;;5068184;28;20044;-59
2023/06/23 03:05:09;;;;;;;8.48;3.85;;;18.70;99.90;;;;;;5034275;28;20094;-59
2023/06/23 03:07:38;;;;;;;4.82;3.78;;;18.70;99.90;;;;;;5050833;28;20499;-59
2023/06/23 03:10:06;;;;;;;5.57;4.43;;;18.70;99.90;;;;;;5050651;28;20041;-59
2023/06/23 03:12:33;;;;;;;12.15;4.65;;;18.70;99.90;;;;;;5068556;28;20044;-59
2023/06/23 03:15:00;;;;;;;10.38;4.82;;;18.70;99.90;;;;;;5068429;28;20415;-59
2023/06/23 03:17:28;;;;;;;5.47;3.63;;;18.70;99.90;;;;;;5068355;28;20506;-59
2023/06/23 03:20:24;;;;;;;12.02;4.65;;;18.70;99.90;;;;;;5034152;28;20044;-61
2023/06/23 03:23:01;;;;;;;6.25;4.00;;;18.70;99.90;;;;;;5050531;28;20293;-59
2023/06/23 03:25:27;;;;;;;8.63;5.03;;;18.70;99.90;;;;;;5050959;28;20040;-59
2023/06/23 03:28:04;;;;;;;5.70;3.55;;;18.70;99.90;;;;;;5050633;28;20135;-59
2023/06/23 03:30:33;;;;;;;7.38;3.92;;;18.70;99.90;;;;;;5050409;28;20059;-59
2023/06/23 03:33:02;;;;;;;7.60;4.03;;;18.60;99.90;;;;;;5050413;28;20052;-60
2023/06/23 03:35:32;;;;;;;9.93;3.95;;;18.60;99.90;;;;;;5050540;28;20048;-60
2023/06/23 03:38:00;;;;;;;6.82;3.92;;;18.50;99.90;;;;;;5030643;28;20774;-60
2023/06/23 03:40:28;;;;;;;8.52;4.32;;;18.50;99.90;;;;;;5056276;28;20419;-59
2023/06/23 03:42:58;;;;;;;11.50;3.97;;;18.40;99.90;;;;;;5049577;28;20048;-60
2023/06/23 03:45:25;;;;;;;12.48;4.93;;;18.30;99.90;;;;;;5049857;28;20335;-60
2023/06/23 03:47:54;;;;;;;7.57;3.90;;;18.30;99.90;;;;;;5050501;28;20049;-60
2023/06/23 03:50:24;;;;;;;6.07;3.90;;;18.30;99.90;;;;;;5034090;28;20040;-60
2023/06/23 03:52:51;;;;;;;8.82;3.80;;;18.20;99.90;;;;;;5030460;28;20037;-60
2023/06/23 03:55:18;;;;;;;5.25;3.72;;;18.20;99.90;;;;;;5049883;28;20049;-60
2023/06/23 03:57:45;;;;;;;6.63;3.67;;;18.30;99.90;;;;;;5050075;28;20053;-60
2023/06/23 04:00:12;;;;;;;5.40;3.85;;;18.20;99.90;;;;;;5033645;28;20127;-60
2023/06/23 04:02:40;;;;;;;7.00;3.83;;;18.10;99.90;;;;;;5049876;28;20414;-60
2023/06/23 04:05:07;;;;;;;9.45;4.32;;;18.10;99.90;;;;;;5031635;28;20045;-60
2023/06/23 04:07:34;;;;;;;6.78;4.00;;;18.00;99.90;;;;;;5048556;28;20119;-60
2023/06/23 04:10:01;;;;;;;7.45;4.57;;;18.00;99.90;;;;;;5033856;28;20063;-60
2023/06/23 04:12:28;;;;;;;11.98;4.85;;;18.10;99.90;;;;;;5050157;28;20492;-60
2023/06/23 04:14:55;;;;;;;7.45;4.10;;;18.20;99.90;;;;;;5071874;28;20048;-60
2023/06/23 04:17:24;;;;;;;9.18;4.18;;;18.10;99.90;;;;;;5033862;28;20048;-60
2023/06/23 04:19:53;;;;;;;5.90;3.78;;;18.10;99.90;;;;;;5039288;28;20130;-61
2023/06/23 04:22:20;;;;;;;7.97;4.05;;;18.20;99.90;;;;;;5042452;28;20053;-60
2023/06/23 04:24:47;;;;;;;6.57;3.88;;;18.10;99.90;;;;;;5030332;28;20053;-60
2023/06/23 04:27:14;;;;;;;8.38;4.18;;;18.10;99.90;;;;;;5045733;28;20355;-60
2023/06/23 04:29:43;;;;;;;8.18;3.63;;;18.10;99.90;;;;;;5036093;28;20096;-60
2023/06/23 04:32:10;;;;;;;5.78;3.88;;;18.10;99.90;;;;;;5035329;28;20072;-60
2023/06/23 04:34:36;;;;;;;6.47;4.25;;;18.10;99.90;;;;;;5039349;28;20049;-60
2023/06/23 04:37:07;;;;;;;8.30;3.92;;;18.10;99.90;;;;;;5035845;28;20071;-60
2023/06/23 04:39:58;;;;;;;5.93;4.45;;;18.10;99.90;;;;;;5041945;28;20106;-60
2023/06/23 04:42:29;;;;;;;7.35;4.38;;;18.20;99.90;;;;;;5036042;28;20041;-60
2023/06/23 04:44:58;;;;;;;6.38;3.70;;;18.20;99.90;;;;;;5022201;28;20385;-61
2023/06/23 04:47:25;;;;;;;6.72;4.03;;;18.20;99.90;;;;;;5033920;28;20473;-60
2023/06/23 04:49:54;;;;;;;5.97;4.13;;;18.10;99.90;;;;;;5041575;28;20131;-60
2023/06/23 04:52:21;;;;;;;6.53;4.30;;;18.10;99.90;;;;;;5047697;28;20054;-60
2023/06/23 04:54:48;;;;;;;8.68;3.83;;;18.10;99.90;;;;;;5024782;28;20061;-60
2023/06/23 04:57:19;;;;;;;8.90;4.13;;;18.20;99.90;;;;;;5030686;28;20099;-60
2023/06/23 04:59:51;;;;;;;8.52;3.80;;;18.20;99.90;;;;;;5038283;28;20048;-60
2023/06/23 05:02:19;;;;;;;6.57;3.83;;;18.20;99.90;;;;;;5043767;28;20045;-60
2023/06/23 05:04:46;;;;;;;7.18;3.90;;;18.20;99.90;;;;;;5022109;28;20053;-64
2023/06/23 05:07:14;;;;;;;6.88;3.90;;;18.30;99.90;;;;;;5051023;28;20408;-61
2023/06/23 05:09:42;;;;;;;8.02;4.40;;;18.30;99.90;;;;;;5036719;28;20412;-60
2023/06/23 05:12:10;;;;;;;8.38;4.15;;;18.40;99.90;;;;;;5033407;28;20201;-61
2023/06/23 05:14:38;;;;;;;10.50;4.68;;;18.50;99.90;;;;;;5044090;28;20060;-60
2023/06/23 05:17:05;;;;;;;6.97;3.80;;;18.50;99.90;;;;;;5026095;28;20049;-61
2023/06/23 05:19:34;;;;;;;9.43;4.13;;;18.50;99.90;;;;;;5045017;28;20087;-61
2023/06/23 05:22:01;;;;;;;6.93;3.88;;;18.60;99.90;;;;;;5044487;28;20049;-60
2023/06/23 05:24:28;;;;;;;6.18;3.97;;;18.60;99.90;;;;;;5069162;28;20127;-60
2023/06/23 05:26:59;;;;;;;5.88;3.95;;;18.70;99.90;;;;;;5070170;28;20048;-60
2023/06/23 05:29:26;;;;;;;6.15;4.13;;;18.80;99.90;;;;;;5070204;28;20044;-60
2023/06/23 05:31:53;;;;;;;6.65;4.20;;;18.80;99.90;;;;;;5055201;28;20055;-61
2023/06/23 05:34:20;;;;;;;7.90;4.35;;;18.90;99.90;;;;;;5062495;28;20055;-61
2023/06/23 05:36:46;;;;;;;7.65;4.93;;;18.90;99.90;;;;;;5036300;28;20412;-60
2023/06/23 05:39:16;;;;;;;7.40;4.85;;;18.90;99.90;;;;;;5034100;28;20052;-60
2023/06/23 05:41:43;;;;;;;12.63;5.22;;;19.00;99.90;;;;;;5069331;28;20044;-60
2023/06/23 05:44:10;;;;;;;8.07;6.25;;;19.00;99.90;;;;;;5051836;28;20109;-60
2023/06/23 05:46:38;;;;;;;14.30;7.10;;;19.10;99.90;;;;;;5058688;28;20052;-60
2023/06/23 05:49:09;;;;;;;17.60;6.25;;;19.10;99.90;;;;;;5052332;28;20287;-61
2023/06/23 05:51:36;;;;;;;10.23;5.10;;;19.20;99.90;;;;;;5032127;28;20056;-61
2023/06/23 05:54:08;;;;;;;11.75;5.72;;;19.20;99.90;;;;;;5050214;28;20048;-61
2023/06/23 05:56:36;;;;;;;12.43;4.88;;;19.40;99.90;;;;;;5049657;28;20094;-61
2023/06/23 05:59:06;;;;;;;10.02;5.20;;;19.40;99.90;;;;;;5035692;28;20053;-60
2023/06/23 06:01:37;;;;;;;20.67;5.40;;;19.40;99.90;;;;;;5051505;28;20052;-61
2023/06/23 06:04:14;;;;;;;13.35;5.70;;;19.40;99.90;;;;;;5065154;28;20132;-61
2023/06/23 06:06:41;;;;;;;9.70;4.68;;;19.50;99.90;;;;;;5067837;28;20041;-61
2023/06/23 06:09:10;;;;;;;11.27;4.75;;;19.60;99.90;;;;;;5049806;28;20055;-60
2023/06/23 06:11:37;;;;;;;9.63;4.38;;;19.60;99.90;;;;;;5050927;28;20054;-65
2023/06/23 06:14:04;;;;;;;12.75;5.60;;;19.80;99.90;;;;;;5050597;28;20044;-60
2023/06/23 06:16:31;;;;;;;10.50;4.68;;;19.90;99.90;;;;;;5024579;28;20064;-61
2023/06/23 06:18:58;;;;;;;6.15;4.53;;;20.00;99.90;;;;;;5051258;28;20125;-60
2023/06/23 06:21:24;;;;;;;10.43;5.45;;;20.10;99.90;;;;;;5050938;28;20055;-60
2023/06/23 06:23:52;;;;;;;9.13;5.75;;;20.20;99.90;;;;;;5068811;28;20071;-60
2023/06/23 06:26:19;;;;;;;7.60;4.75;;;20.20;99.90;;;;;;4701814;28;10000548;-59
2023/06/23 06:28:46;;;;;;;7.47;4.65;;;20.20;99.90;;;;;;5048853;28;20533;-60
2023/06/23 06:31:13;;;;;;;14.43;5.45;;;20.30;99.90;;;;;;5048069;28;20041;-59
2023/06/23 06:33:40;;;;;;;13.98;6.05;;;20.30;99.90;;;;;;5065707;28;20815;-61
2023/06/23 06:36:07;;;;;;;7.55;4.90;;;20.30;99.90;;;;;;5047934;28;20472;-60
2023/06/23 06:38:35;;;;;;;9.70;4.72;;;20.40;99.90;;;;;;5048198;28;20064;-60
2023/06/23 06:41:04;;;;;;;11.43;4.65;;;20.40;99.90;;;;;;5066730;28;20040;-59
2023/06/23 06:43:31;;;;;;;11.23;6.43;;;20.50;99.90;;;;;;5047570;28;20044;-61
2023/06/23 06:46:00;;;;;;;8.20;4.80;;;20.60;99.90;;;;;;5048402;28;20044;-60
2023/06/23 06:48:27;;;;;;;9.15;4.35;;;20.60;99.90;;;;;;5080896;28;20048;-60
2023/06/23 06:50:55;;;;;;;9.77;4.65;;;20.70;99.90;;;;;;5048441;28;20098;-60
2023/06/23 06:53:22;;;;;;;6.95;4.00;;;20.70;99.90;;;;;;5065089;28;20052;-59
2023/06/23 06:55:49;;;;;;;6.97;4.43;;;20.80;99.90;;;;;;5064652;28;20056;-59
2023/06/23 06:58:16;;;;;;;9.50;4.82;;;20.80;99.90;;;;;;5031126;28;20051;-59
2023/06/23 07:00:43;;;;;;;7.72;5.05;;;21.00;99.90;;;;;;5046488;28;20458;-71
2023/06/23 07:03:12;;;;;;;7.05;5.30;;;21.00;99.90;;;;;;5048229;28;20045;-60
2023/06/23 07:05:40;;;;;;;10.05;4.43;;;21.10;99.90;;;;;;5064170;28;20048;-62
2023/06/23 07:08:07;;;;;;;6.68;4.88;;;21.20;99.90;;;;;;5046952;28;20071;-60
2023/06/23 07:10:34;;;;;;;9.45;5.75;;;21.20;99.90;;;;;;5065454;28;20040;-59
2023/06/23 07:13:03;;;;;;;15.20;4.70;;;21.30;99.90;;;;;;5025951;28;20049;-59
2023/06/23 07:15:30;;;;;;;9.02;3.75;;;21.40;99.90;;;;;;5065349;28;20053;-60
2023/06/23 07:17:57;;;;;;;5.70;4.07;;;21.60;99.90;;;;;;5063559;28;20128;-59
2023/06/23 07:20:24;;;;;;;7.53;3.78;;;21.60;99.90;;;;;;5064198;28;20655;-59
2023/06/23 07:22:51;;;;;;;7.25;4.35;;;21.70;99.90;;;;;;5064918;28;20071;-57
2023/06/23 07:25:18;;;;;;;7.85;3.85;;;21.70;99.90;;;;;;5060592;28;20067;-64
2023/06/23 07:27:48;;;;;;;6.05;3.45;;;21.80;99.90;;;;;;5062504;28;20072;-58
2023/06/23 07:30:15;;;;;;;4.90;3.83;;;21.90;99.90;;;;;;5066379;28;20056;-59
2023/06/23 07:32:45;;;;;;;12.43;4.40;;;21.90;99.90;;;;;;5066766;28;20471;-58
2023/06/23 07:35:13;;;;;;;4.60;3.45;;;21.90;99.90;;;;;;5067304;28;20090;-59
2023/06/23 07:37:40;;;;;;;5.35;3.20;;;22.00;99.90;;;;;;5064648;28;20052;-59
2023/06/23 07:40:07;;;;;;;5.30;3.88;;;21.90;99.90;;;;;;5065139;28;20597;-59
2023/06/23 07:42:34;;;;;;;7.93;4.07;;;21.90;99.90;;;;;;5049148;28;20051;-59
2023/06/23 07:45:01;;;;;;;6.20;3.88;;;21.90;99.90;;;;;;5067028;28;20499;-59
2023/06/23 07:47:28;;;;;;;5.65;3.20;;;21.90;99.90;;;;;;5065730;28;20041;-59
2023/06/23 07:49:56;;;;;;;8.93;3.70;;;21.90;99.90;;;;;;5067060;28;20102;-60
2023/06/23 07:52:23;;;;;;;4.30;3.08;;;22.00;99.90;;;;;;5067133;28;20044;-59
2023/06/23 07:54:50;;;;;;;7.68;3.38;;;22.00;99.90;;;;;;5067000;28;20048;-59
2023/06/23 07:57:17;;;;;;;7.65;2.80;;;22.00;99.90;;;;;;5050619;28;20048;-57
2023/06/23 07:59:43;;;;;;;10.05;3.03;;;22.00;99.90;;;;;;5066911;28;20511;-59
2023/06/23 08:02:10;;;;;;;7.35;4.60;;;22.10;99.90;;;;;;5067202;28;20048;-60
2023/06/23 08:04:39;;;;;;;4.65;3.42;;;22.10;99.90;;;;;;5066985;28;20080;-59
2023/06/23 08:07:06;;;;;;;4.30;3.17;;;22.20;99.90;;;;;;5067071;28;20131;-58
2023/06/23 08:09:33;;;;;;;6.18;3.05;;;22.20;99.90;;;;;;5067019;28;20502;-59
2023/06/23 08:12:00;;;;;;;5.18;3.00;;;22.30;99.90;;;;;;5066594;28;20040;-59
2023/06/23 08:14:27;;;;;;;4.80;3.25;;;22.30;99.90;;;;;;5066776;28;20048;-58
2023/06/23 08:16:54;;;;;;;5.03;2.80;;;22.40;99.90;;;;;;5065684;28;20070;-58
2023/06/23 08:19:24;;;;;;;5.82;3.65;;;22.40;99.90;;;;;;5065223;28;20143;-60
2023/06/23 08:21:52;;;;;;;6.22;4.22;;;22.40;99.90;;;;;;5067001;28;20048;-59
2023/06/23 08:24:19;;;;;;;4.93;3.05;;;22.40;99.90;;;;;;5066511;28;20459;-59
2023/06/23 08:26:46;;;;;;;6.88;3.78;;;22.50;99.90;;;;;;5066623;28;20052;-59
2023/06/23 08:29:12;;;;;;;8.95;3.92;;;22.50;99.90;;;;;;5072083;28;20045;-59
2023/06/23 08:31:39;;;;;;;10.50;3.47;;;22.50;99.90;;;;;;5063050;28;20422;-58
2023/06/23 08:34:06;;;;;;;6.13;3.70;;;22.50;99.90;;;;;;5067065;28;20047;-58
2023/06/23 08:36:33;;;;;;;6.47;3.60;;;22.50;99.90;;;;;;5066561;28;20492;-59
2023/06/23 08:39:00;;;;;;;12.48;5.03;;;22.60;99.90;;;;;;5062661;28;20102;-59
2023/06/23 08:41:27;;;;;;;9.73;4.18;;;22.60;99.90;;;;;;5066666;28;20048;-60
2023/06/23 08:43:53;;;;;;;5.72;3.53;;;22.70;99.90;;;;;;5048710;28;20227;-58
2023/06/23 08:46:21;;;;;;;7.38;4.03;;;22.80;99.90;;;;;;5032724;28;20466;-57
2023/06/23 08:48:51;;;;;;;6.28;3.83;;;22.90;99.90;;;;;;5029227;28;20515;-58
2023/06/23 08:51:17;;;;;;;7.85;4.63;;;23.00;99.90;;;;;;5061840;28;20044;-61
2023/06/23 08:53:44;;;;;;;7.57;4.07;;;22.90;99.90;;;;;;5067054;28;20052;-59
2023/06/23 08:56:13;;;;;;;8.07;4.65;;;23.00;99.90;;;;;;5012852;28;20281;-59
2023/06/23 08:58:40;;;;;;;7.32;4.38;;;23.10;99.90;;;;;;5038400;28;20052;-59
2023/06/23 09:01:07;;;;;;;10.52;4.78;;;23.10;99.90;;;;;;5070062;28;20131;-59
2023/06/23 09:03:34;;;;;;;12.88;4.85;;;23.20;99.90;;;;;;5070724;28;20071;-59
2023/06/23 09:06:02;;;;;;;10.25;5.55;;;23.20;99.90;;;;;;5070635;28;20105;-58
2023/06/23 09:08:29;;;;;;;7.72;4.38;;;23.20;99.90;;;;;;5052681;28;20548;-62
2023/06/23 09:10:56;;;;;;;6.65;3.58;;;23.20;99.90;;;;;;5052562;28;20044;-58
2023/06/23 09:13:27;;;;;;;8.57;4.60;;;23.30;99.90;;;;;;5070641;28;20224;-59
2023/06/23 09:15:55;;;;;;;7.25;4.65;;;23.50;99.90;;;;;;5070186;28;20049;-62
2023/06/23 09:18:32;;;;;;;5.40;4.07;;;23.60;99.90;;;;;;5070286;28;20368;-59
2023/06/23 09:21:01;;;;;;;5.82;4.38;;;23.60;99.90;;;;;;5070245;28;20139;-60
2023/06/23 09:23:31;;;;;;;7.47;3.55;;;23.40;99.90;;;;;;5070080;28;20056;-60
2023/06/23 09:25:59;;;;;;;7.65;4.22;;;23.30;99.90;;;;;;5070146;28;20531;-58
2023/06/23 09:28:28;;;;;;;6.67;4.67;;;23.40;99.90;;;;;;4730809;28;10000127;-59
2023/06/23 09:30:59;;;;;;;6.85;3.92;;;23.60;99.90;;;;;;5070470;28;20048;-58
2023/06/23 09:33:27;;;;;;;6.30;4.35;;;23.70;99.90;;;;;;5052187;28;20113;-59
2023/06/23 09:35:54;;;;;;;5.85;3.67;;;23.90;99.90;;;;;;5070363;28;20495;-59
2023/06/23 09:38:23;;;;;;;6.43;3.85;;;24.00;99.90;;;;;;5069587;28;20090;-59
2023/06/23 09:41:11;;;;;;;6.05;4.07;;;24.10;99.90;;;;;;5069699;28;20048;-59
2023/06/23 09:43:43;;;;;;;5.47;3.50;;;24.20;99.90;;;;;;5069662;28;20071;-60
2023/06/23 09:46:11;;;;;;;5.93;3.88;;;24.20;99.90;;;;;;5070145;28;20056;-60
2023/06/23 09:48:41;;;;;;;5.60;3.85;;;24.40;99.90;;;;;;5069426;28;20166;-60
2023/06/23 09:51:09;;;;;;;5.78;3.33;;;24.40;99.90;;;;;;5052457;28;20052;-59
2023/06/23 09:53:40;;;;;;;5.28;3.63;;;24.50;99.90;;;;;;5069832;28;20052;-59
2023/06/23 09:56:12;;;;;;;6.20;4.15;;;24.60;99.90;;;;;;5070336;28;20037;-61
2023/06/23 09:58:40;;;;;;;16.08;3.25;;;24.70;99.90;;;;;;5069716;28;20052;-60
2023/06/23 10:01:09;;;;;;;5.53;3.55;;;24.80;99.90;;;;;;5069635;28;20048;-60
2023/06/23 10:03:43;;;;;;;8.10;3.42;;;24.80;99.90;;;;;;5069465;28;20102;-59
2023/06/23 10:06:35;;;;;;;5.45;3.20;;;24.70;99.90;;;;;;5069446;28;20052;-59
2023/06/23 10:09:03;;;;;;;9.40;2.95;;;24.60;99.90;;;;;;5069310;28;20446;-59
2023/06/23 10:11:31;;;;;;;4.78;3.38;;;24.60;99.90;;;;;;5051220;28;20044;-61
2023/06/23 10:13:59;;;;;;;8.10;3.30;;;24.60;99.90;;;;;;5069304;28;20049;-59
2023/06/23 10:16:27;;;;;;;4.18;3.20;;;24.70;99.90;;;;;;5085137;28;20098;-60
2023/06/23 10:18:54;;;;;;;3.83;3.13;;;24.80;99.90;;;;;;5069019;28;20140;-61
2023/06/23 10:21:21;;;;;;;8.10;3.33;;;25.00;99.90;;;;;;5051184;28;20127;-62
2023/06/23 10:23:48;;;;;;;4.15;3.50;;;25.00;99.60;;;;;;5068679;28;20131;-61
2023/06/23 10:26:16;;;;;;;8.23;3.38;;;24.90;99.30;;;;;;5051683;28;20052;-60
2023/06/23 10:28:48;;;;;;;8.48;2.72;;;24.90;99.30;;;;;;5051113;28;20085;-61
2023/06/23 10:31:16;;;;;;;6.72;2.70;;;24.70;98.60;;;;;;5051358;28;20454;-61
2023/06/23 10:33:43;;;;;;;4.18;2.80;;;24.90;99.70;;;;;;5051381;28;20102;-60
2023/06/23 10:36:13;;;;;;;4.75;2.78;;;25.00;99.10;;;;;;5034976;28;20055;-60
2023/06/23 10:38:42;;;;;;;5.22;2.97;;;24.90;98.40;;;;;;5046266;28;20063;-59
2023/06/23 10:41:09;;;;;;;4.30;3.00;;;24.90;99.20;;;;;;5066091;28;20495;-58
2023/06/23 10:43:36;;;;;;;6.55;2.92;;;25.10;98.70;;;;;;5034354;28;20052;-60
2023/06/23 10:46:06;;;;;;;6.50;3.28;;;25.10;98.60;;;;;;5068577;28;20495;-59
2023/06/23 10:48:33;;;;;;;5.60;2.60;;;25.30;98.30;;;;;;5034552;28;20044;-60
2023/06/23 10:51:00;;;;;;;6.85;2.90;;;25.30;98.30;;;;;;5067958;28;20216;-60
2023/06/23 10:53:32;;;;;;;9.57;4.30;;;25.30;97.10;;;;;;5034476;28;20176;-59
2023/06/23 10:55:59;;;;;;;5.50;2.88;;;25.30;97.10;;;;;;5050921;28;20418;-59
2023/06/23 10:58:52;;;;;;;5.07;3.28;;;25.30;97.80;;;;;;5068391;28;20140;-59
2023/06/23 11:01:19;;;;;;;6.93;3.58;;;25.30;97.10;;;;;;5050271;28;20080;-59
2023/06/23 11:03:45;;;;;;;5.00;3.50;;;25.20;97.30;;;;;;5068642;28;20052;-59
2023/06/23 11:06:13;;;;;;;5.63;2.60;;;25.30;96.60;;;;;;5033694;28;20053;-59
2023/06/23 11:08:41;;;;;;;4.32;2.17;;;25.20;95.30;;;;;;5050366;28;20040;-60
2023/06/23 11:11:09;;;;;;;4.43;2.60;;;25.30;95.60;;;;;;5050145;28;20053;-60
2023/06/23 11:13:45;;;;;;;5.32;2.78;;;25.30;95.40;;;;;;5068628;28;20082;-59
2023/06/23 11:16:17;;;;;;;7.00;3.47;;;25.30;95.20;;;;;;5050514;28;20048;-59
2023/06/23 11:18:49;;;;;;;5.15;3.20;;;25.40;96.00;;;;;;5068620;28;20044;-59
2023/06/23 11:21:16;;;;;;;9.82;4.03;;;25.40;95.80;;;;;;5067634;28;20443;-59
2023/06/23 11:24:08;;;;;;;10.80;3.33;;;25.50;96.30;;;;;;5067540;28;20055;-59
2023/06/23 11:26:36;;;;;;;6.07;2.78;;;25.50;95.50;;;;;;5068115;28;20122;-59
2023/06/23 11:29:09;;;;;;;5.32;3.53;;;25.60;95.50;;;;;;5068146;28;20048;-59
2023/06/23 11:31:36;;;;;;;11.90;3.50;;;25.70;95.00;;;;;;5067716;28;20145;-60
2023/06/23 11:34:03;;;;;;;6.13;2.72;;;25.60;95.20;;;;;;5030011;28;20041;-59
2023/06/23 11:36:31;;;;;;;4.63;3.20;;;25.70;95.60;;;;;;5058374;28;20052;-59
2023/06/23 11:38:58;;;;;;;4.05;2.95;;;25.50;95.10;;;;;;5067971;28;20063;-60
2023/06/23 11:41:25;;;;;;;5.20;3.13;;;25.60;95.50;;;;;;5067781;28;20093;-62
2023/06/23 11:43:57;;;;;;;4.15;2.50;;;25.70;95.50;;;;;;5067935;28;20450;-60
2023/06/23 11:46:24;;;;;;;4.00;2.25;;;25.80;93.00;;;;;;5069340;28;20496;-60
2023/06/23 11:48:51;;;;;;;2.28;1.88;;;25.90;91.20;;;;;;5073131;28;20045;-60
2023/06/23 11:51:18;;;;;;;3.88;2.67;;;25.90;91.60;;;;;;5060153;28;20052;-59
2023/06/23 11:53:45;;;;;;;4.05;2.75;;;25.90;92.20;;;;;;5067680;28;20040;-59
2023/06/23 11:56:16;;;;;;;7.38;3.38;;;25.70;92.20;;;;;;5066873;28;20056;-59
2023/06/23 11:58:51;;;;;;;5.20;3.10;;;25.80;93.30;;;;;;5067519;28;20101;-60
2023/06/23 12:01:18;;;;;;;4.45;3.45;;;26.00;92.60;;;;;;5067128;28;20130;-60
2023/06/23 12:03:49;;;;;;;5.25;2.88;;;26.10;93.00;;;;;;5049862;28;20049;-61
2023/06/23 12:06:17;;;;;;;3.78;2.55;;;25.90;92.50;;;;;;5067087;28;20044;-60
2023/06/23 12:08:44;;;;;;;8.57;2.58;;;25.80;92.90;;;;;;5064596;28;20045;-60
2023/06/23 12:11:12;;;;;;;5.32;2.55;;;25.80;91.90;;;;;;5065993;28;20132;-61
2023/06/23 12:13:38;;;;;;;3.03;2.05;;;25.70;91.30;;;;;;5067189;28;20351;-60
2023/06/23 12:16:06;;;;;;;4.22;2.60;;;25.80;91.30;;;;;;5046340;28;20046;-60
2023/06/23 12:18:41;;;;;;;6.07;3.03;;;25.70;91.10;;;;;;5063865;28;20060;-59
2023/06/23 12:21:09;;;;;;;3.53;2.47;;;25.70;91.30;;;;;;5052714;28;20052;-59
2023/06/23 12:23:36;;;;;;;5.95;2.63;;;25.80;91.70;;;;;;5066988;28;20052;-60
2023/06/23 12:26:06;;;;;;;13.65;4.05;;;25.70;90.80;;;;;;5049118;28;20462;-58
2023/06/23 12:28:33;;;;;;;6.70;2.22;;;25.90;91.30;;;;;;5032920;28;20172;-59
2023/06/23 12:31:00;;;;;;;3.20;2.03;;;25.90;90.80;;;;;;5049142;28;20075;-59
2023/06/23 12:33:29;;;;;;;3.45;2.22;;;26.10;91.20;;;;;;5064233;28;20518;-60
2023/06/23 12:36:00;;;;;;;3.45;1.70;;;26.20;88.70;;;;;;5071402;28;20048;-58
2023/06/23 12:38:37;;;;;;;4.50;1.70;;;26.20;82.90;;;;;;5070751;28;20048;-60
2023/06/23 12:41:33;;;;;;;3.40;1.88;;;26.10;79.80;;;;;;5067493;28;20473;-59
2023/06/23 12:44:00;;;;;;;2.50;1.55;;;26.20;79.80;;;;;;5054773;28;20264;-59
2023/06/23 12:46:27;;;;;;;5.70;3.03;;;26.20;83.30;;;;;;5070498;28;20529;-60
2023/06/23 12:48:54;;;;;;;1.50;1.40;;;26.40;82.50;;;;;;5070486;28;20040;-60
2023/06/23 12:51:33;;;;;;;6.15;2.63;;;26.50;81.80;;;;;;5070982;28;20059;-60
2023/06/23 12:54:01;;;;;;;2.47;2.15;;;26.50;80.50;;;;;;5069103;28;20087;-60